createdAt,value
2018-12-19T00:02:25.348Z,6.40
2018-12-19T00:04:56.284Z,6.45
2018-12-19T00:07:26.986Z,6.48
2018-12-19T00:09:55.979Z,6.53
2018-12-19T00:12:24.976Z,6.49
2018-12-19T00:14:54.043Z,6.47
2018-12-19T00:17:24.922Z,6.46
2018-12-19T00:19:53.866Z,6.49
2018-12-19T00:22:22.794Z,6.53
2018-12-19T00:24:51.786Z,6.52
2018-12-19T00:27:22.683Z,6.54
2018-12-19T00:29:53.535Z,6.60
2018-12-19T00:32:24.352Z,6.56
2018-12-19T00:34:55.560Z,6.56
2018-12-19T00:37:25.465Z,6.60
2018-12-19T00:39:54.337Z,6.61
2018-12-19T00:42:23.447Z,6.65
2018-12-19T00:44:52.627Z,6.68
2018-12-19T00:47:22.526Z,6.68
2018-12-19T00:49:51.654Z,6.67
2018-12-19T00:52:20.654Z,6.70
2018-12-19T00:54:49.666Z,6.67
2018-12-19T00:57:18.600Z,6.70
2018-12-19T00:59:47.379Z,6.70
2018-12-19T01:02:16.261Z,6.71
2018-12-19T01:04:48.121Z,6.74
2018-12-19T01:07:16.010Z,6.76
2018-12-19T01:09:45.934Z,6.72
2018-12-19T01:12:15.006Z,6.69
2018-12-19T01:14:43.975Z,6.73
2018-12-19T01:17:12.974Z,6.75
2018-12-19T01:19:41.990Z,6.77
2018-12-19T01:22:10.912Z,6.75
2018-12-19T01:24:39.955Z,6.75
2018-12-19T01:27:08.899Z,6.75
2018-12-19T01:29:37.878Z,6.76
2018-12-19T01:32:06.858Z,6.79
2018-12-19T01:34:35.854Z,6.80
2018-12-19T01:37:05.386Z,6.80
2018-12-19T01:39:34.264Z,6.78
2018-12-19T01:42:03.328Z,6.78
2018-12-19T01:44:32.256Z,6.83
2018-12-19T01:47:01.206Z,6.89
2018-12-19T01:49:30.276Z,6.94
2018-12-19T01:51:59.224Z,6.93
2018-12-19T01:54:30.373Z,6.95
2018-12-19T01:56:59.254Z,6.94
2018-12-19T01:59:28.392Z,6.96
2018-12-19T02:01:57.221Z,6.98
2018-12-19T02:04:26.216Z,6.96
2018-12-19T02:06:55.286Z,6.95
2018-12-19T02:09:28.861Z,6.98
2018-12-19T02:11:56.046Z,6.97
2018-12-19T02:14:25.076Z,6.98
2018-12-19T02:16:54.012Z,6.99
2018-12-19T02:19:23.030Z,7.00
2018-12-19T02:21:52.054Z,7.00
2018-12-19T02:24:21.095Z,7.01
2018-12-19T02:26:50.060Z,7.01
2018-12-19T02:29:18.906Z,6.98
2018-12-19T02:31:47.887Z,6.97
2018-12-19T02:34:17.095Z,6.95
2018-12-19T02:36:46.311Z,6.94
2018-12-19T02:39:15.255Z,6.96
2018-12-19T02:41:44.248Z,6.95
2018-12-19T02:44:13.159Z,6.91
2018-12-19T02:46:42.244Z,6.99
2018-12-19T02:49:11.220Z,7.00
2018-12-19T02:51:40.222Z,6.99
2018-12-19T02:54:09.285Z,7.00
2018-12-19T02:56:38.117Z,7.05
2018-12-19T02:59:07.192Z,7.07
2018-12-19T03:01:35.906Z,7.07
2018-12-19T03:04:04.937Z,7.13
2018-12-19T03:06:33.874Z,7.18
2018-12-19T03:09:03.954Z,7.23
2018-12-19T03:11:34.991Z,7.25
2018-12-19T03:14:04.050Z,7.28
2018-12-19T03:16:34.257Z,7.34
2018-12-19T03:19:03.221Z,7.38
2018-12-19T03:21:32.174Z,7.40
2018-12-19T03:24:01.023Z,7.44
2018-12-19T03:26:30.419Z,7.49
2018-12-19T03:28:59.442Z,7.53
2018-12-19T03:31:28.316Z,7.54
2018-12-19T03:33:58.236Z,7.53
2018-12-19T03:36:27.292Z,7.58
2018-12-19T03:38:57.147Z,7.59
2018-12-19T03:41:26.130Z,7.58
2018-12-19T03:43:55.195Z,7.59
2018-12-19T03:46:24.176Z,7.58
2018-12-19T03:48:56.410Z,7.59
2018-12-19T03:51:25.715Z,7.60
2018-12-19T03:53:54.847Z,7.57
2018-12-19T03:56:23.926Z,7.60
2018-12-19T03:58:52.827Z,7.65
2018-12-19T04:01:21.623Z,7.62
2018-12-19T04:03:51.462Z,7.60
2018-12-19T04:06:20.341Z,7.61
2018-12-19T04:08:49.426Z,7.64
2018-12-19T04:11:18.462Z,7.63
2018-12-19T04:13:48.641Z,7.65
2018-12-19T04:16:17.559Z,7.65
2018-12-19T04:18:46.619Z,7.68
2018-12-19T04:21:15.617Z,7.72
2018-12-19T04:23:44.533Z,7.71
2018-12-19T04:26:13.590Z,7.75
2018-12-19T04:28:42.810Z,7.79
2018-12-19T04:31:12.818Z,7.80
2018-12-19T04:33:41.724Z,7.80
2018-12-19T04:36:10.713Z,7.83
2018-12-19T04:38:40.243Z,7.82
2018-12-19T04:41:09.000Z,7.84
2018-12-19T04:43:37.990Z,7.80
2018-12-19T04:46:07.074Z,7.83
2018-12-19T04:48:36.047Z,7.83
2018-12-19T04:51:05.112Z,7.81
2018-12-19T04:53:33.975Z,7.83
2018-12-19T04:56:03.031Z,7.83
2018-12-19T04:58:31.963Z,7.86
2018-12-19T05:01:15.134Z,7.82
2018-12-19T05:03:44.073Z,7.82
2018-12-19T05:06:13.051Z,7.81
2018-12-19T05:08:42.040Z,7.82
2018-12-19T05:11:11.038Z,7.81
2018-12-19T05:13:40.105Z,7.79
2018-12-19T05:16:09.023Z,7.83
2018-12-19T05:18:38.040Z,7.84
2018-12-19T05:21:07.016Z,7.84
2018-12-19T05:23:36.005Z,7.82
2018-12-19T05:26:05.074Z,7.82
2018-12-19T05:28:33.786Z,7.86
2018-12-19T05:31:02.739Z,7.86
2018-12-19T05:33:31.662Z,7.85
2018-12-19T05:36:00.762Z,7.83
2018-12-19T05:38:29.797Z,7.82
2018-12-19T05:40:58.718Z,7.81
2018-12-19T05:43:27.637Z,7.83
2018-12-19T05:45:56.707Z,7.86
2018-12-19T05:48:25.748Z,7.82
2018-12-19T05:50:54.595Z,7.86
2018-12-19T05:53:23.675Z,7.87
2018-12-19T05:55:52.582Z,7.86
2018-12-19T05:58:21.666Z,7.84
2018-12-19T06:00:50.599Z,7.79
2018-12-19T06:03:21.490Z,7.78
2018-12-19T06:05:50.411Z,7.76
2018-12-19T06:08:19.179Z,7.74
2018-12-19T06:10:48.077Z,7.73
2018-12-19T06:13:17.078Z,7.72
2018-12-19T06:15:46.054Z,7.71
2018-12-19T06:18:15.120Z,7.67
2018-12-19T06:20:44.076Z,7.66
2018-12-19T06:23:13.039Z,7.67
2018-12-19T06:25:42.111Z,7.61
2018-12-19T06:28:11.107Z,7.58
2018-12-19T06:30:40.103Z,7.54
2018-12-19T06:33:09.083Z,7.45
2018-12-19T06:35:38.003Z,7.45
2018-12-19T06:38:07.016Z,7.41
2018-12-19T06:40:36.112Z,7.46
2018-12-19T06:43:05.364Z,7.50
2018-12-19T06:45:34.631Z,7.48
2018-12-19T06:48:03.715Z,7.49
2018-12-19T06:50:32.644Z,7.50
2018-12-19T06:53:01.647Z,7.49
2018-12-19T06:55:30.547Z,7.50
2018-12-19T06:57:59.568Z,7.48
2018-12-19T07:00:28.606Z,7.51
2018-12-19T07:02:57.397Z,7.47
2018-12-19T07:05:26.370Z,7.42
2018-12-19T07:07:55.286Z,7.48
2018-12-19T07:10:24.297Z,7.46
2018-12-19T07:12:53.203Z,7.50
2018-12-19T07:15:22.190Z,7.48
2018-12-19T07:17:51.359Z,7.51
2018-12-19T07:20:20.493Z,7.54
2018-12-19T07:22:49.475Z,7.54
2018-12-19T07:25:18.544Z,7.55
2018-12-19T07:27:47.455Z,7.57
2018-12-19T07:30:16.534Z,7.61
2018-12-19T07:32:45.522Z,7.63
2018-12-19T07:35:14.518Z,7.66
2018-12-19T07:37:43.502Z,7.67
2018-12-19T07:40:12.484Z,7.67
2018-12-19T07:42:42.358Z,7.66
2018-12-19T07:45:11.338Z,7.68
2018-12-19T07:47:40.313Z,7.73
2018-12-19T07:50:09.461Z,7.74
2018-12-19T07:52:38.300Z,7.77
2018-12-19T07:55:07.372Z,7.78
2018-12-19T07:57:37.204Z,7.79
2018-12-19T08:00:07.096Z,7.79
2018-12-19T08:02:36.188Z,7.80
2018-12-19T08:05:05.772Z,7.84
2018-12-19T08:07:34.716Z,7.87
2018-12-19T08:10:04.316Z,7.88
2018-12-19T08:12:36.168Z,7.91
2018-12-19T08:15:05.273Z,7.92
2018-12-19T08:17:34.200Z,7.97
2018-12-19T08:20:03.072Z,7.95
2018-12-19T08:22:33.901Z,7.99
2018-12-19T08:25:03.267Z,7.99
2018-12-19T08:27:32.187Z,8.03
2018-12-19T08:30:01.181Z,8.05
2018-12-19T08:32:30.167Z,8.03
2018-12-19T08:34:59.215Z,8.07
2018-12-19T08:37:28.215Z,8.10
2018-12-19T08:39:57.291Z,8.10
2018-12-19T08:42:26.263Z,8.12
2018-12-19T08:44:56.049Z,8.16
2018-12-19T08:47:25.038Z,8.19
2018-12-19T08:49:54.094Z,8.21
2018-12-19T08:52:23.022Z,8.25
2018-12-19T08:54:52.032Z,8.31
2018-12-19T08:57:21.046Z,8.33
2018-12-19T08:59:50.021Z,8.36
2018-12-19T09:02:18.990Z,8.37
2018-12-19T09:04:48.062Z,8.39
2018-12-19T09:07:16.999Z,8.39
2018-12-19T09:09:45.974Z,8.41
2018-12-19T09:12:14.958Z,8.43
2018-12-19T09:14:44.026Z,8.45
2018-12-19T09:17:13.706Z,8.46
2018-12-19T09:19:42.684Z,8.47
2018-12-19T09:22:11.616Z,8.51
2018-12-19T09:24:40.614Z,8.56
2018-12-19T09:27:09.610Z,8.60
2018-12-19T09:29:38.590Z,8.58
2018-12-19T09:32:07.663Z,8.63
2018-12-19T09:34:36.520Z,8.66
2018-12-19T09:37:05.574Z,8.68
2018-12-19T09:39:34.563Z,8.69
2018-12-19T09:42:03.579Z,8.67
2018-12-19T09:44:32.491Z,8.69
2018-12-19T09:47:02.470Z,8.71
2018-12-19T09:49:33.226Z,8.72
2018-12-19T09:52:02.303Z,8.75
2018-12-19T09:54:31.379Z,8.80
2018-12-19T09:57:00.275Z,8.81
2018-12-19T09:59:29.195Z,8.81
2018-12-19T10:01:58.459Z,8.86
2018-12-19T10:04:27.416Z,8.90
2018-12-19T10:06:56.237Z,8.93
2018-12-19T10:09:25.483Z,8.95
2018-12-19T10:11:54.547Z,8.97
2018-12-19T10:14:23.446Z,9.01
2018-12-19T10:16:52.454Z,9.02
2018-12-19T10:19:21.525Z,9.06
2018-12-19T10:21:50.432Z,9.06
2018-12-19T10:24:21.523Z,9.11
2018-12-19T10:26:50.626Z,9.13
2018-12-19T10:29:19.550Z,9.11
2018-12-19T10:31:48.546Z,9.15
2018-12-19T10:34:17.563Z,9.20
2018-12-19T10:36:46.527Z,9.24
2018-12-19T10:39:17.407Z,9.25
2018-12-19T10:41:46.363Z,9.26
2018-12-19T10:44:15.513Z,9.24
2018-12-19T10:46:44.598Z,9.29
2018-12-19T10:49:13.660Z,9.34
2018-12-19T10:51:42.642Z,9.39
2018-12-19T10:54:11.715Z,9.40
2018-12-19T10:56:40.621Z,9.43
2018-12-19T10:59:09.694Z,9.48
2018-12-19T11:01:38.763Z,9.51
2018-12-19T11:04:07.852Z,9.55
2018-12-19T11:06:36.738Z,9.54
2018-12-19T11:09:07.128Z,9.59
2018-12-19T11:11:36.339Z,9.61
2018-12-19T11:14:05.402Z,9.63
2018-12-19T11:16:34.554Z,9.67
2018-12-19T11:19:03.470Z,9.71
2018-12-19T11:21:32.617Z,9.72
2018-12-19T11:24:01.630Z,9.73
2018-12-19T11:26:30.530Z,9.77
2018-12-19T11:28:59.354Z,9.78
2018-12-19T11:31:28.360Z,9.81
2018-12-19T11:33:57.460Z,9.82
2018-12-19T11:36:26.411Z,9.81
2018-12-19T11:38:55.648Z,9.85
2018-12-19T11:41:24.758Z,9.88
2018-12-19T11:43:53.699Z,9.89
2018-12-19T11:46:22.656Z,9.92
2018-12-19T11:48:51.603Z,9.95
2018-12-19T11:51:20.599Z,9.94
2018-12-19T11:53:49.658Z,9.94
2018-12-19T11:56:18.575Z,9.99
2018-12-19T11:58:47.574Z,9.98
2018-12-19T12:01:16.568Z,9.98
2018-12-19T12:03:45.564Z,10.00
2018-12-19T12:06:16.548Z,10.00
2018-12-19T12:08:45.470Z,9.98
2018-12-19T12:11:14.454Z,9.99
2018-12-19T12:13:43.452Z,10.00
2018-12-19T12:16:12.491Z,10.02
2018-12-19T12:18:41.383Z,10.02
2018-12-19T12:21:10.499Z,10.04
2018-12-19T12:23:39.638Z,10.07
2018-12-19T12:26:08.642Z,10.13
2018-12-19T12:28:37.637Z,10.13
2018-12-19T12:31:06.626Z,10.17
2018-12-19T12:33:35.696Z,10.22
2018-12-19T12:36:05.241Z,10.22
2018-12-19T12:38:34.425Z,10.28
2018-12-19T12:41:03.756Z,10.33
2018-12-19T12:43:32.894Z,10.33
2018-12-19T12:46:01.807Z,10.36
2018-12-19T12:48:31.187Z,10.41
2018-12-19T12:51:00.174Z,10.43
2018-12-19T12:53:29.156Z,10.47
2018-12-19T12:55:58.086Z,10.48
2018-12-19T12:58:27.062Z,10.50
2018-12-19T13:00:56.070Z,10.50
2018-12-19T13:03:25.188Z,10.53
2018-12-19T13:05:53.992Z,10.47
2018-12-19T13:08:22.739Z,10.49
2018-12-19T13:10:51.818Z,10.48
2018-12-19T13:13:20.739Z,10.51
2018-12-19T13:15:49.710Z,10.51
2018-12-19T13:18:18.775Z,10.47
2018-12-19T13:20:47.783Z,10.47
2018-12-19T13:23:16.922Z,10.47
2018-12-19T13:25:46.004Z,10.47
2018-12-19T13:28:14.975Z,10.51
2018-12-19T13:30:44.144Z,10.47
2018-12-19T13:33:12.990Z,10.45
2018-12-19T13:35:42.031Z,10.49
2018-12-19T13:38:11.078Z,10.49
2018-12-19T13:40:40.010Z,10.52
2018-12-19T13:43:09.063Z,10.53
2018-12-19T13:45:38.074Z,10.55
2018-12-19T13:48:07.041Z,10.52
2018-12-19T13:50:36.055Z,10.49
2018-12-19T13:53:05.314Z,10.47
2018-12-19T13:55:34.207Z,10.48
2018-12-19T13:58:06.994Z,10.49
2018-12-19T14:00:34.343Z,10.49
2018-12-19T14:03:03.400Z,10.50
2018-12-19T14:05:32.258Z,10.50
2018-12-19T14:08:01.320Z,10.49
2018-12-19T14:10:31.466Z,10.49
2018-12-19T14:13:00.454Z,10.47
2018-12-19T14:15:29.291Z,10.46
2018-12-19T14:17:58.383Z,10.47
2018-12-19T14:20:27.333Z,10.47
2018-12-19T14:22:56.332Z,10.49
2018-12-19T14:25:25.639Z,10.46
2018-12-19T14:27:54.571Z,10.47
2018-12-19T14:30:23.550Z,10.46
2018-12-19T14:32:52.709Z,10.43
2018-12-19T14:35:21.585Z,10.40
2018-12-19T14:37:50.885Z,10.44
2018-12-19T14:40:19.883Z,10.46
2018-12-19T14:42:55.127Z,10.45
2018-12-19T14:45:24.119Z,10.40
2018-12-19T14:47:52.956Z,10.35
2018-12-19T14:50:21.956Z,10.35
2018-12-19T14:52:52.106Z,10.34
2018-12-19T14:55:21.155Z,10.31
2018-12-19T14:57:50.247Z,10.31
2018-12-19T15:00:20.499Z,10.31
2018-12-19T15:02:50.019Z,10.26
2018-12-19T15:05:18.954Z,10.25
2018-12-19T15:07:47.967Z,10.30
2018-12-19T15:10:17.343Z,10.31
2018-12-19T15:12:48.018Z,10.25
2018-12-19T15:15:17.078Z,10.23
2018-12-19T15:17:46.437Z,10.22
2018-12-19T15:20:35.026Z,10.24
2018-12-19T15:23:05.364Z,10.22
2018-12-19T15:25:34.175Z,10.22
2018-12-19T15:28:03.159Z,10.26
2018-12-19T15:30:33.164Z,10.25
2018-12-19T15:33:02.078Z,10.24
2018-12-19T15:35:32.102Z,10.24
2018-12-19T15:38:00.987Z,10.26
2018-12-19T15:40:30.111Z,10.23
2018-12-19T15:42:58.954Z,10.22
2018-12-19T15:45:28.080Z,10.23
2018-12-19T15:47:57.038Z,10.22
2018-12-19T15:50:25.939Z,10.23
2018-12-19T15:52:54.956Z,10.28
2018-12-19T15:55:23.928Z,10.30
2018-12-19T15:57:52.999Z,10.28
2018-12-19T16:00:22.949Z,10.29
2018-12-19T16:02:51.823Z,10.28
2018-12-19T16:05:20.879Z,10.31
2018-12-19T16:07:49.822Z,10.32
2018-12-19T16:10:18.586Z,10.32
2018-12-19T16:13:00.163Z,10.32
2018-12-19T16:15:29.385Z,10.33
2018-12-19T16:17:58.483Z,10.32
2018-12-19T16:20:27.363Z,10.34
2018-12-19T16:22:56.687Z,10.32
2018-12-19T16:25:32.486Z,10.31
2018-12-19T16:28:01.483Z,10.30
2018-12-19T16:30:30.412Z,10.27
2018-12-19T16:32:59.420Z,10.26
2018-12-19T16:35:28.470Z,10.28
2018-12-19T16:37:57.451Z,10.27
2018-12-19T16:40:26.466Z,10.26
2018-12-19T16:42:55.431Z,10.25
2018-12-19T16:45:24.344Z,10.22
2018-12-19T16:47:53.420Z,10.20
2018-12-19T16:50:22.417Z,10.17
2018-12-19T16:52:51.338Z,10.12
2018-12-19T16:55:20.403Z,10.13
2018-12-19T16:57:49.744Z,10.13
2018-12-19T17:00:19.958Z,10.12
2018-12-19T17:02:49.911Z,10.08
2018-12-19T17:05:18.877Z,10.06
2018-12-19T17:07:47.740Z,10.07
2018-12-19T17:10:16.847Z,10.05
2018-12-19T17:12:52.520Z,10.07
2018-12-19T17:15:16.941Z,10.10
2018-12-19T17:17:46.317Z,10.08
2018-12-19T17:20:15.326Z,10.09
2018-12-19T17:22:44.562Z,10.08
2018-12-19T17:25:13.522Z,10.06
2018-12-19T17:27:42.674Z,10.02
2018-12-19T17:30:11.507Z,10.03
2018-12-19T17:32:40.891Z,10.01
2018-12-19T17:35:09.735Z,10.00
2018-12-19T17:37:38.845Z,10.01
2018-12-19T17:40:07.786Z,10.01
2018-12-19T17:42:36.713Z,10.01
2018-12-19T17:45:06.068Z,10.03
2018-12-19T17:47:35.126Z,10.05
2018-12-19T17:50:12.970Z,10.04
2018-12-19T17:52:42.279Z,10.03
2018-12-19T17:55:11.271Z,10.02
2018-12-19T17:57:41.139Z,10.02
2018-12-19T18:00:12.385Z,9.96
2018-12-19T18:02:42.231Z,9.95
2018-12-19T18:05:12.154Z,9.92
2018-12-19T18:16:41.134Z,9.86
2018-12-19T18:19:10.261Z,9.84
2018-12-19T18:21:41.369Z,9.80
2018-12-19T18:24:10.325Z,9.81
2018-12-19T18:26:39.320Z,9.80
2018-12-19T18:29:08.319Z,9.79
2018-12-19T18:31:38.303Z,9.78
2018-12-19T18:34:07.438Z,9.82
2018-12-19T18:36:36.503Z,9.79
2018-12-19T18:39:08.574Z,9.80
2018-12-19T18:41:37.490Z,9.81
2018-12-19T18:44:07.191Z,9.84
2018-12-19T18:46:36.099Z,9.87
2018-12-19T18:49:05.466Z,9.86
2018-12-19T18:51:36.939Z,9.83
2018-12-19T18:54:06.330Z,9.85
2018-12-19T18:56:35.224Z,9.80
2018-12-19T18:59:05.051Z,9.82
2018-12-19T19:01:34.151Z,9.81
2018-12-19T19:04:03.115Z,9.79
2018-12-19T19:06:32.392Z,9.76
2018-12-19T19:09:02.311Z,9.77
2018-12-19T19:11:33.132Z,9.75
2018-12-19T19:14:02.075Z,9.72
2018-12-19T19:16:31.210Z,9.73
2018-12-19T19:19:00.158Z,9.74
2018-12-19T19:21:30.119Z,9.75
2018-12-19T19:23:59.894Z,9.74
2018-12-19T19:26:28.880Z,9.71
2018-12-19T19:28:58.201Z,9.71
2018-12-19T19:31:27.174Z,9.71
2018-12-19T19:33:56.162Z,9.67
2018-12-19T19:36:25.247Z,9.66
2018-12-19T19:38:54.142Z,9.65
2018-12-19T19:41:23.238Z,9.66
2018-12-19T19:43:53.054Z,9.65
2018-12-19T19:46:22.054Z,9.60
2018-12-19T19:48:51.143Z,9.60
2018-12-19T19:51:20.031Z,9.58
2018-12-19T19:53:49.025Z,9.54
2018-12-19T19:56:18.162Z,9.52
2018-12-19T19:58:47.059Z,9.50
2018-12-19T20:01:16.070Z,9.48
2018-12-19T20:03:45.091Z,9.43
2018-12-19T20:06:14.019Z,9.41
2018-12-19T20:08:42.726Z,9.38
2018-12-19T20:11:11.815Z,9.37
2018-12-19T20:13:40.663Z,9.34
2018-12-19T20:16:09.651Z,9.30
2018-12-19T20:18:38.710Z,9.31
2018-12-19T20:21:07.710Z,9.28
2018-12-19T20:23:37.618Z,9.29
2018-12-19T20:26:06.614Z,9.29
2018-12-19T20:28:35.535Z,9.26
2018-12-19T20:31:06.223Z,9.22
2018-12-19T20:33:35.122Z,9.18
2018-12-19T20:36:05.126Z,9.13
2018-12-19T20:38:34.043Z,9.07
2018-12-19T20:41:02.990Z,9.03
2018-12-19T20:43:32.016Z,9.00
2018-12-19T20:46:01.134Z,8.97
2018-12-19T20:48:30.310Z,8.95
2018-12-19T20:51:12.227Z,8.95
2018-12-19T20:53:42.213Z,8.94
2018-12-19T20:56:12.643Z,8.94
2018-12-19T20:58:41.568Z,8.89
2018-12-19T21:01:11.261Z,8.89
2018-12-19T21:03:40.468Z,8.89
2018-12-19T21:06:09.472Z,8.85
2018-12-19T21:08:38.218Z,8.84
2018-12-19T21:11:08.439Z,8.82
2018-12-19T21:13:37.434Z,8.83
2018-12-19T21:16:06.500Z,8.84
2018-12-19T21:18:45.694Z,8.82
2018-12-19T21:21:14.974Z,8.86
2018-12-19T21:23:43.771Z,8.87
2018-12-19T21:26:12.840Z,8.87
2018-12-19T21:28:41.858Z,8.86
2018-12-19T21:31:11.130Z,8.87
2018-12-19T21:33:40.060Z,8.88
2018-12-19T21:36:09.183Z,8.86
2018-12-19T21:38:38.412Z,8.85
2018-12-19T21:41:07.401Z,8.88
2018-12-19T21:43:36.338Z,8.87
2018-12-19T21:46:05.381Z,8.88
2018-12-19T21:48:34.397Z,8.90
2018-12-19T21:51:03.306Z,8.87
2018-12-19T21:53:32.354Z,8.80
2018-12-19T21:56:01.299Z,8.73
2018-12-19T21:58:30.378Z,8.69
2018-12-19T22:00:59.322Z,8.65
2018-12-19T22:03:28.273Z,8.61
2018-12-19T22:05:57.381Z,8.58
2018-12-19T22:08:26.257Z,8.58
2018-12-19T22:10:55.413Z,8.54
2018-12-19T22:13:24.289Z,8.56
2018-12-19T22:15:53.299Z,8.54
2018-12-19T22:18:27.581Z,8.50
2018-12-19T22:20:56.533Z,8.46
2018-12-19T22:23:25.644Z,8.38
2018-12-19T22:25:54.443Z,8.31
2018-12-19T22:28:23.650Z,8.25
2018-12-19T22:30:52.533Z,8.25
2018-12-19T22:33:21.516Z,8.25
2018-12-19T22:35:50.521Z,8.25
2018-12-19T22:38:19.455Z,8.27
2018-12-19T22:40:48.516Z,8.27
2018-12-19T22:43:17.358Z,8.24
2018-12-19T22:45:46.381Z,8.22
2018-12-19T22:48:15.432Z,8.22
2018-12-19T22:50:44.559Z,8.18
2018-12-19T22:53:14.016Z,8.17
2018-12-19T22:55:43.018Z,8.16
2018-12-19T22:58:12.089Z,8.18
2018-12-19T23:00:46.377Z,8.19
2018-12-19T23:03:16.486Z,8.18
2018-12-19T23:05:50.487Z,8.19
2018-12-19T23:08:19.811Z,8.17
2018-12-19T23:10:48.570Z,8.19
2018-12-19T23:13:18.011Z,8.17
2018-12-19T23:15:49.572Z,8.17
2018-12-19T23:18:27.239Z,8.16
2018-12-19T23:21:01.575Z,8.18
2018-12-19T23:23:36.430Z,8.19
2018-12-19T23:26:07.995Z,8.20
2018-12-19T23:28:38.851Z,8.20
2018-12-19T23:31:08.784Z,8.20
2018-12-19T23:33:38.263Z,8.20
2018-12-19T23:36:07.511Z,8.19
2018-12-19T23:38:36.388Z,8.16
2018-12-19T23:41:05.875Z,8.14
2018-12-19T23:43:36.638Z,8.09
2018-12-19T23:46:06.122Z,8.03
2018-12-19T23:48:35.862Z,8.00
2018-12-19T23:51:05.156Z,7.99
2018-12-19T23:53:34.025Z,7.99
2018-12-19T23:56:03.008Z,7.98
2018-12-19T23:58:32.093Z,7.97
